Time;durP1;ratioP1;P1;durP2;ratioP2;P2;SDS_P1;SDS_P2;PMS_P1;PMS_P2;Temp;Humidity;BMP_temperature;BMP_pressure;BME280_temperature;BME280_humidity;BME280_pressure;Samples;Min_cycle;Max_cycle;Signal;HPM_P1;HPM_P2
2022/03/26 00:00:16;;;;;;;44.72;26.10;;;7.20;48.50;;;;;;4976455;28;20471;-75
2022/03/26 00:02:42;;;;;;;42.67;25.02;;;7.00;49.00;;;;;;4976710;28;20050;-75
2022/03/26 00:05:08;;;;;;;42.60;24.75;;;7.10;49.00;;;;;;4976331;28;20461;-75
2022/03/26 00:07:34;;;;;;;41.38;23.77;;;7.00;48.70;;;;;;4976499;28;20526;-74
2022/03/26 00:10:00;;;;;;;44.20;26.13;;;7.10;49.60;;;;;;4976174;28;20112;-74
2022/03/26 00:12:25;;;;;;;42.08;25.13;;;7.10;48.80;;;;;;4976503;28;20025;-76
2022/03/26 00:14:51;;;;;;;37.72;23.70;;;7.10;48.90;;;;;;4976291;28;20069;-74
2022/03/26 00:17:17;;;;;;;41.65;24.80;;;7.20;48.90;;;;;;4976286;28;20116;-75
2022/03/26 00:19:42;;;;;;;43.97;25.98;;;7.10;49.00;;;;;;4976716;28;20030;-74
2022/03/26 00:22:08;;;;;;;40.45;25.45;;;7.10;49.00;;;;;;4976299;28;20038;-74
2022/03/26 00:24:33;;;;;;;41.97;24.70;;;7.00;49.00;;;;;;4975897;28;20026;-74
2022/03/26 00:26:59;;;;;;;41.63;25.80;;;7.00;49.10;;;;;;4975868;28;20034;-74
2022/03/26 00:29:28;;;;;;;39.25;24.67;;;6.90;49.30;;;;;;4976172;28;20467;-78
2022/03/26 00:31:55;;;;;;;46.75;24.15;;;6.80;49.60;;;;;;4960791;28;20475;-79
2022/03/26 00:34:21;;;;;;;40.63;24.13;;;6.70;49.90;;;;;;4976104;28;20033;-75
2022/03/26 00:36:46;;;;;;;41.17;24.17;;;6.60;50.10;;;;;;4976131;28;20030;-74
2022/03/26 00:39:12;;;;;;;38.45;24.05;;;6.60;50.70;;;;;;4976445;28;20023;-75
2022/03/26 00:41:38;;;;;;;47.75;26.55;;;6.50;50.90;;;;;;4975540;28;20050;-74
2022/03/26 00:44:03;;;;;;;49.25;28.42;;;6.40;51.10;;;;;;4976083;28;20458;-74
2022/03/26 00:46:29;;;;;;;47.65;29.00;;;6.40;51.00;;;;;;4976532;28;20030;-76
2022/03/26 00:48:58;;;;;;;51.90;29.65;;;6.40;51.20;;;;;;4980299;28;20383;-76
2022/03/26 00:51:24;;;;;;;45.75;26.88;;;6.40;50.90;;;;;;4980101;28;20034;-74
2022/03/26 00:53:49;;;;;;;45.70;27.83;;;6.20;50.80;;;;;;4980035;28;20394;-74
2022/03/26 00:56:15;;;;;;;50.97;27.95;;;6.20;51.20;;;;;;4980072;28;20100;-74
2022/03/26 00:58:41;;;;;;;47.75;27.83;;;6.20;51.30;;;;;;4979676;28;20030;-74
2022/03/26 01:01:07;;;;;;;46.85;28.20;;;6.20;51.30;;;;;;4979659;28;20038;-74
2022/03/26 01:03:34;;;;;;;46.97;27.67;;;6.20;51.30;;;;;;4997452;28;20214;-74
2022/03/26 01:05:59;;;;;;;42.90;24.90;;;6.20;51.10;;;;;;4979804;28;20026;-75
2022/03/26 01:08:25;;;;;;;43.03;24.33;;;6.10;51.40;;;;;;4979478;28;20041;-76
2022/03/26 01:10:51;;;;;;;47.95;26.73;;;6.20;51.40;;;;;;4979403;28;20426;-75
2022/03/26 01:13:17;;;;;;;41.50;25.52;;;6.20;51.60;;;;;;4979559;28;20494;-75
2022/03/26 01:15:43;;;;;;;41.15;24.15;;;6.10;51.80;;;;;;4979835;28;20026;-75
2022/03/26 01:18:09;;;;;;;43.95;25.88;;;6.10;51.90;;;;;;4979173;28;20027;-75
2022/03/26 01:20:35;;;;;;;42.88;25.30;;;6.10;52.30;;;;;;4979489;28;20030;-75
2022/03/26 01:23:01;;;;;;;43.05;25.20;;;6.00;52.20;;;;;;4979550;28;20093;-74
2022/03/26 01:25:28;;;;;;;45.95;25.73;;;6.00;52.30;;;;;;4979518;28;20056;-75
2022/03/26 01:27:54;;;;;;;43.10;25.58;;;5.90;52.70;;;;;;4979123;28;20117;-74
2022/03/26 01:30:19;;;;;;;43.42;25.02;;;5.80;53.00;;;;;;4979654;28;20019;-74
2022/03/26 01:32:45;;;;;;;44.88;24.88;;;5.80;53.10;;;;;;4979436;28;20463;-74
2022/03/26 01:35:12;;;;;;;47.08;26.95;;;5.70;53.30;;;;;;4979140;28;20883;-75
2022/03/26 01:37:38;;;;;;;48.88;27.23;;;5.70;53.40;;;;;;4979510;28;20463;-74
2022/03/26 01:40:05;;;;;;;45.55;26.52;;;5.70;53.30;;;;;;4978964;28;20553;-74
2022/03/26 01:42:32;;;;;;;52.22;28.75;;;5.70;53.30;;;;;;4978937;28;20060;-74
2022/03/26 01:44:58;;;;;;;49.42;28.23;;;5.70;53.20;;;;;;4978975;28;20479;-74
2022/03/26 01:47:23;;;;;;;52.92;27.83;;;5.70;53.40;;;;;;4979321;28;20026;-74
2022/03/26 01:49:51;;;;;;;53.30;28.70;;;5.70;53.50;;;;;;4979026;28;20033;-74
2022/03/26 01:52:17;;;;;;;43.67;25.98;;;5.70;53.60;;;;;;4978884;28;20034;-75
2022/03/26 01:54:43;;;;;;;51.53;28.55;;;5.80;53.60;;;;;;4978867;28;20022;-74
2022/03/26 01:57:12;;;;;;;41.92;25.30;;;5.70;53.90;;;;;;4978775;28;20026;-74
2022/03/26 01:59:41;;;;;;;41.42;24.83;;;5.60;54.10;;;;;;4978332;28;20027;-74
2022/03/26 02:02:09;;;;;;;52.67;29.20;;;5.60;53.80;;;;;;4978567;28;20100;-74
2022/03/26 02:04:34;;;;;;;53.03;28.52;;;5.40;54.30;;;;;;4978628;28;20088;-74
2022/03/26 02:07:04;;;;;;;45.38;25.75;;;5.30;54.80;;;;;;4996329;28;20041;-74
2022/03/26 02:09:35;;;;;;;49.70;28.10;;;5.30;55.00;;;;;;4978620;28;20026;-74
2022/03/26 02:12:21;;;;;;;47.22;27.23;;;5.40;55.10;;;;;;4978774;28;20386;-75
2022/03/26 02:14:46;;;;;;;44.50;26.42;;;5.40;54.80;;;;;;4978734;28;20105;-74
2022/03/26 02:17:12;;;;;;;47.47;26.13;;;5.40;54.70;;;;;;4978743;28;20078;-75
2022/03/26 02:19:37;;;;;;;44.83;25.98;;;5.30;55.00;;;;;;4978627;28;20019;-75
2022/03/26 02:22:04;;;;;;;45.05;25.67;;;5.40;55.00;;;;;;4977992;28;20479;-74
2022/03/26 02:24:29;;;;;;;41.67;23.73;;;5.40;54.80;;;;;;4978443;28;20567;-74
2022/03/26 02:26:55;;;;;;;39.95;23.25;;;5.40;54.60;;;;;;4978716;28;20062;-74
2022/03/26 02:29:21;;;;;;;38.60;23.92;;;5.50;54.50;;;;;;4982416;28;20023;-75
2022/03/26 02:31:46;;;;;;;46.65;25.92;;;5.40;54.30;;;;;;4979645;28;20026;-75
2022/03/26 02:34:12;;;;;;;51.97;28.20;;;5.30;54.80;;;;;;4978459;28;20058;-75
2022/03/26 02:36:37;;;;;;;43.60;25.92;;;5.20;54.90;;;;;;4978143;28;20090;-75
2022/03/26 02:39:04;;;;;;;46.88;26.40;;;5.20;55.20;;;;;;4977949;28;20026;-75
2022/03/26 02:41:31;;;;;;;47.47;26.83;;;5.20;55.20;;;;;;4977599;28;20042;-74
2022/03/26 02:43:56;;;;;;;44.97;26.15;;;5.10;55.40;;;;;;4978013;28;20030;-75
2022/03/26 02:46:22;;;;;;;45.05;26.40;;;5.10;55.50;;;;;;4977872;28;20393;-75
2022/03/26 02:48:48;;;;;;;49.30;28.20;;;5.10;55.40;;;;;;4977896;28;20494;-75
2022/03/26 02:51:13;;;;;;;49.45;29.27;;;5.10;55.00;;;;;;4977724;28;20093;-75
2022/03/26 02:53:39;;;;;;;49.65;29.65;;;5.10;55.20;;;;;;4977678;28;20026;-75
2022/03/26 02:56:04;;;;;;;51.95;29.35;;;5.10;56.30;;;;;;4961434;28;20031;-75
2022/03/26 02:58:30;;;;;;;58.35;32.20;;;5.00;55.60;;;;;;4993753;28;20125;-74
2022/03/26 03:00:57;;;;;;;56.03;30.55;;;5.00;55.80;;;;;;4977616;28;20104;-75
2022/03/26 03:03:23;;;;;;;54.97;31.10;;;5.00;55.90;;;;;;4977960;28;20034;-75
2022/03/26 03:05:49;;;;;;;46.35;26.95;;;5.00;56.00;;;;;;4977522;28;20026;-75
2022/03/26 03:08:15;;;;;;;46.35;26.75;;;5.00;56.10;;;;;;4977527;28;20030;-75
2022/03/26 03:10:44;;;;;;;52.40;29.73;;;5.00;56.20;;;;;;4976835;28;20030;-75
2022/03/26 03:13:11;;;;;;;50.83;28.38;;;5.00;56.50;;;;;;4977344;28;20490;-75
2022/03/26 03:15:37;;;;;;;51.78;30.83;;;5.00;56.70;;;;;;4977349;28;20026;-76
2022/03/26 03:18:04;;;;;;;55.60;30.58;;;5.00;57.40;;;;;;4977209;28;20022;-75
2022/03/26 03:20:30;;;;;;;50.80;30.55;;;5.00;57.70;;;;;;4977174;28;20502;-75
2022/03/26 03:22:57;;;;;;;53.85;29.98;;;4.90;56.70;;;;;;4976847;28;20065;-75
2022/03/26 03:25:26;;;;;;;53.38;30.73;;;4.80;57.20;;;;;;4977199;28;20065;-75
2022/03/26 03:27:52;;;;;;;51.95;30.30;;;4.90;57.20;;;;;;4977102;28;20050;-75
2022/03/26 03:30:18;;;;;;;50.72;29.98;;;4.90;56.80;;;;;;4977064;28;20018;-76
2022/03/26 03:32:44;;;;;;;51.08;29.92;;;4.80;56.80;;;;;;4977290;28;20026;-75
2022/03/26 03:35:10;;;;;;;58.90;30.48;;;4.80;56.70;;;;;;4976777;28;20018;-75
2022/03/26 03:37:40;;;;;;;50.55;27.45;;;4.70;57.70;;;;;;4976985;28;20368;-74
2022/03/26 03:40:07;;;;;;;48.00;29.13;;;4.70;57.00;;;;;;4976651;28;20045;-74
2022/03/26 03:42:33;;;;;;;46.97;26.88;;;4.70;57.20;;;;;;4976981;28;20125;-76
2022/03/26 03:44:59;;;;;;;47.20;26.83;;;4.70;57.10;;;;;;4976752;28;20027;-75
2022/03/26 03:47:24;;;;;;;44.33;27.05;;;4.70;56.90;;;;;;4994531;28;20038;-75
2022/03/26 03:49:51;;;;;;;50.70;28.98;;;4.70;56.60;;;;;;4976752;28;20022;-76
2022/03/26 03:52:17;;;;;;;49.03;26.27;;;4.70;56.60;;;;;;4977062;28;20033;-77
2022/03/26 03:54:42;;;;;;;46.83;25.88;;;4.80;56.60;;;;;;4976661;28;20080;-75
2022/03/26 03:57:08;;;;;;;45.55;25.60;;;4.80;56.70;;;;;;4976891;28;20080;-75
2022/03/26 03:59:33;;;;;;;44.05;26.13;;;4.80;56.70;;;;;;4976756;28;20018;-75
2022/03/26 04:01:59;;;;;;;50.30;26.75;;;4.70;57.20;;;;;;4976749;28;20031;-76
2022/03/26 04:04:25;;;;;;;53.92;27.92;;;4.70;57.30;;;;;;4976630;28;20379;-75
2022/03/26 04:06:51;;;;;;;47.45;26.73;;;4.70;57.70;;;;;;4976297;28;20042;-76
2022/03/26 04:09:16;;;;;;;49.22;27.58;;;4.70;58.40;;;;;;4976291;28;20022;-76
2022/03/26 04:11:44;;;;;;;51.63;28.17;;;4.70;57.50;;;;;;4976670;28;20029;-75
2022/03/26 04:14:09;;;;;;;48.88;26.50;;;4.60;57.30;;;;;;4976606;28;20030;-75
2022/03/26 04:16:35;;;;;;;52.78;29.45;;;4.60;57.70;;;;;;4976546;28;20374;-75
2022/03/26 04:19:00;;;;;;;50.00;29.35;;;4.50;58.00;;;;;;4976528;28;20030;-75
2022/03/26 04:21:26;;;;;;;50.10;28.10;;;4.50;57.90;;;;;;4975856;28;20061;-76
2022/03/26 04:23:53;;;;;;;52.63;27.55;;;4.40;57.70;;;;;;4976239;28;20037;-75
2022/03/26 04:26:19;;;;;;;54.25;28.40;;;4.40;58.10;;;;;;4976134;28;20080;-75
2022/03/26 04:28:50;;;;;;;49.15;28.33;;;4.30;58.60;;;;;;4976248;28;20057;-76
2022/03/26 04:31:15;;;;;;;47.00;26.20;;;4.30;58.80;;;;;;4975997;28;20074;-75
2022/03/26 04:33:41;;;;;;;53.38;29.52;;;4.30;59.00;;;;;;4976173;28;20089;-74
2022/03/26 04:36:07;;;;;;;52.88;26.80;;;4.30;59.10;;;;;;4975997;28;20029;-74
2022/03/26 04:38:32;;;;;;;52.42;28.88;;;4.30;59.50;;;;;;4976125;28;20061;-74
2022/03/26 04:40:58;;;;;;;51.47;28.88;;;4.40;59.60;;;;;;4975626;28;20058;-74
2022/03/26 04:43:24;;;;;;;50.13;27.05;;;4.40;59.40;;;;;;4975597;28;20490;-76
2022/03/26 04:45:49;;;;;;;49.38;28.13;;;4.50;59.10;;;;;;4975938;28;20027;-74
2022/03/26 04:48:15;;;;;;;47.53;26.38;;;4.50;58.80;;;;;;4975786;28;20022;-74
2022/03/26 04:50:40;;;;;;;51.38;26.83;;;4.50;58.40;;;;;;4975931;28;20026;-74
2022/03/26 04:53:06;;;;;;;48.95;26.35;;;4.40;58.30;;;;;;4975947;28;20425;-75
2022/03/26 04:55:32;;;;;;;49.47;27.02;;;4.40;58.40;;;;;;4976228;28;20026;-74
2022/03/26 04:57:58;;;;;;;57.50;28.58;;;4.40;58.30;;;;;;4975894;28;20110;-74
2022/03/26 05:00:24;;;;;;;45.65;26.20;;;4.30;58.30;;;;;;4975725;28;20121;-74
2022/03/26 05:02:49;;;;;;;44.63;25.00;;;4.30;58.50;;;;;;4975797;28;20056;-74
2022/03/26 05:05:15;;;;;;;48.20;26.77;;;4.30;58.50;;;;;;4975904;28;20034;-74
2022/03/26 05:07:48;;;;;;;45.63;25.40;;;4.30;58.70;;;;;;4975941;28;20063;-74
2022/03/26 05:10:21;;;;;;;45.90;25.13;;;4.40;58.50;;;;;;4975677;28;20030;-74
2022/03/26 05:12:48;;;;;;;48.60;26.45;;;4.40;58.50;;;;;;4975825;28;20030;-74
2022/03/26 05:15:15;;;;;;;45.72;26.38;;;4.40;58.50;;;;;;4976078;28;20026;-74
2022/03/26 05:17:41;;;;;;;49.22;26.80;;;4.40;58.30;;;;;;4975790;28;20038;-74
2022/03/26 05:20:08;;;;;;;50.20;28.00;;;4.40;58.20;;;;;;4975663;28;20026;-74
2022/03/26 05:22:34;;;;;;;46.10;26.65;;;4.40;58.30;;;;;;4975994;28;20043;-74
2022/03/26 05:25:00;;;;;;;52.80;27.63;;;4.30;58.50;;;;;;4975877;28;20224;-74
2022/03/26 05:27:26;;;;;;;49.08;27.40;;;4.30;58.50;;;;;;4975430;28;20027;-73
2022/03/26 05:29:52;;;;;;;55.28;29.70;;;4.30;59.40;;;;;;4975677;28;20023;-73
2022/03/26 05:32:18;;;;;;;51.75;28.27;;;4.00;59.20;;;;;;4975667;28;20498;-73
2022/03/26 05:34:46;;;;;;;51.05;28.33;;;3.60;60.30;;;;;;4978381;28;20034;-73
2022/03/26 05:37:13;;;;;;;52.72;28.75;;;3.60;60.80;;;;;;4979124;28;20026;-74
2022/03/26 05:39:39;;;;;;;50.80;27.73;;;3.70;61.20;;;;;;4978925;28;20046;-73
2022/03/26 05:42:05;;;;;;;47.53;26.20;;;3.70;61.10;;;;;;4978976;28;20030;-75
2022/03/26 05:44:31;;;;;;;49.65;28.27;;;3.80;61.00;;;;;;4978961;28;20030;-75
2022/03/26 05:46:57;;;;;;;51.40;28.00;;;3.90;60.80;;;;;;4978933;28;20468;-75
2022/03/26 05:49:24;;;;;;;50.60;27.05;;;4.00;60.30;;;;;;4978752;28;20072;-75
2022/03/26 05:51:50;;;;;;;46.42;26.85;;;4.10;60.10;;;;;;4978887;28;20022;-75
2022/03/26 05:54:15;;;;;;;49.50;26.67;;;4.20;59.80;;;;;;4978671;28;20037;-75
2022/03/26 05:56:51;;;;;;;47.75;27.90;;;4.20;59.20;;;;;;4978745;28;20034;-76
2022/03/26 05:59:19;;;;;;;51.65;28.20;;;4.30;58.90;;;;;;4978726;28;20177;-75
2022/03/26 06:01:46;;;;;;;51.30;27.75;;;4.40;58.60;;;;;;4978478;28;20406;-74
2022/03/26 06:04:11;;;;;;;43.58;25.75;;;4.40;58.40;;;;;;4978444;28;20112;-74
2022/03/26 06:06:37;;;;;;;52.38;28.15;;;4.50;58.20;;;;;;4978577;28;20049;-74
2022/03/26 06:09:02;;;;;;;50.25;27.30;;;4.50;58.40;;;;;;4978463;28;20498;-74
2022/03/26 06:11:28;;;;;;;46.30;25.40;;;4.50;58.60;;;;;;4978524;28;20467;-73
2022/03/26 06:13:54;;;;;;;47.00;27.20;;;4.60;58.20;;;;;;4978461;28;20026;-74
2022/03/26 06:16:19;;;;;;;50.28;27.95;;;4.60;58.20;;;;;;4978292;28;20022;-74
2022/03/26 06:18:45;;;;;;;52.70;29.25;;;4.70;58.00;;;;;;4978333;28;20027;-74
2022/03/26 06:21:11;;;;;;;56.95;31.17;;;4.80;57.70;;;;;;4994832;28;20030;-77
2022/03/26 06:23:37;;;;;;;61.88;33.38;;;4.90;57.70;;;;;;4977868;28;20030;-74
2022/03/26 06:26:02;;;;;;;54.83;31.50;;;4.90;57.30;;;;;;4978179;28;20356;-74
2022/03/26 06:28:28;;;;;;;62.70;33.55;;;4.80;57.90;;;;;;4977882;28;20117;-74
2022/03/26 06:30:55;;;;;;;59.78;31.50;;;4.70;58.30;;;;;;4977958;28;20045;-75
2022/03/26 06:33:22;;;;;;;62.60;32.85;;;4.70;58.70;;;;;;4977648;28;20033;-75
2022/03/26 06:35:50;;;;;;;60.55;34.40;;;4.80;58.40;;;;;;4955532;28;20447;-75
2022/03/26 06:38:15;;;;;;;55.25;30.10;;;4.80;58.30;;;;;;4984959;28;20390;-77
2022/03/26 06:40:42;;;;;;;57.55;32.05;;;4.80;58.70;;;;;;5003958;28;20046;-76
2022/03/26 06:43:08;;;;;;;59.50;32.22;;;5.00;58.40;;;;;;4994382;28;20037;-76
2022/03/26 06:45:35;;;;;;;53.50;30.35;;;5.20;57.90;;;;;;4997277;28;20053;-76
2022/03/26 06:48:01;;;;;;;50.75;28.80;;;5.30;57.50;;;;;;4996927;28;20473;-75
2022/03/26 06:50:27;;;;;;;54.75;30.15;;;5.50;56.80;;;;;;4997061;28;20458;-75
2022/03/26 06:52:54;;;;;;;50.08;29.20;;;5.70;56.40;;;;;;4996920;28;20080;-75
2022/03/26 06:55:22;;;;;;;56.20;31.08;;;5.90;55.90;;;;;;4996745;28;20109;-75
2022/03/26 06:57:51;;;;;;;57.22;32.88;;;6.10;55.50;;;;;;4997159;28;20088;-75
2022/03/26 07:00:18;;;;;;;54.97;31.27;;;6.30;54.80;;;;;;4997271;28;20121;-76
2022/03/26 07:02:44;;;;;;;58.92;33.92;;;6.40;54.20;;;;;;4996924;28;20034;-74
2022/03/26 07:05:11;;;;;;;57.33;33.10;;;6.40;54.30;;;;;;4996673;28;20029;-76
2022/03/26 07:07:37;;;;;;;73.05;38.42;;;6.50;54.20;;;;;;4996844;28;20033;-77
2022/03/26 07:10:04;;;;;;;62.20;33.67;;;6.50;54.10;;;;;;4997047;28;20022;-77
2022/03/26 07:12:30;;;;;;;54.95;32.17;;;6.50;54.20;;;;;;4996932;28;20367;-75
2022/03/26 07:14:56;;;;;;;57.42;31.42;;;6.70;53.80;;;;;;4996887;28;20125;-77
2022/03/26 07:17:22;;;;;;;58.25;32.95;;;6.80;53.30;;;;;;4996749;28;20025;-77
2022/03/26 07:19:48;;;;;;;63.95;35.35;;;7.00;53.00;;;;;;4996663;28;20088;-76
2022/03/26 07:22:15;;;;;;;60.22;36.50;;;7.10;53.80;;;;;;4996570;28;20034;-76
2022/03/26 07:24:40;;;;;;;58.13;33.88;;;6.90;54.00;;;;;;4996523;28;20025;-76
2022/03/26 07:27:06;;;;;;;57.95;32.65;;;6.80;54.90;;;;;;4996535;28;20394;-75
2022/03/26 07:29:38;;;;;;;59.65;34.10;;;6.90;55.10;;;;;;4997635;28;20025;-75
2022/03/26 07:32:07;;;;;;;60.53;34.88;;;7.10;54.80;;;;;;4999281;28;20030;-74
2022/03/26 07:34:33;;;;;;;67.78;32.67;;;7.10;54.60;;;;;;5013907;28;20018;-76
2022/03/26 07:37:00;;;;;;;59.67;34.35;;;7.20;54.30;;;;;;5017282;28;20049;-76
2022/03/26 07:39:26;;;;;;;63.03;33.15;;;7.30;54.20;;;;;;5015595;28;20089;-75
2022/03/26 07:41:52;;;;;;;73.80;34.17;;;7.50;53.90;;;;;;5017744;28;20017;-75
2022/03/26 07:44:17;;;;;;;66.38;34.28;;;7.70;53.80;;;;;;5016690;28;20029;-76
2022/03/26 07:46:43;;;;;;;61.92;33.80;;;7.80;52.90;;;;;;5017356;28;20034;-77
2022/03/26 07:49:09;;;;;;;57.25;32.80;;;7.90;53.30;;;;;;5016797;28;20025;-78
2022/03/26 07:51:35;;;;;;;58.80;33.47;;;8.00;52.20;;;;;;4996712;28;20049;-78
2022/03/26 07:54:00;;;;;;;57.05;31.88;;;8.10;52.10;;;;;;4997724;28;20037;-77
2022/03/26 07:56:26;;;;;;;51.72;28.92;;;8.30;51.10;;;;;;4997153;28;20076;-75
2022/03/26 07:58:52;;;;;;;46.42;24.02;;;8.60;51.90;;;;;;4997063;28;20029;-72
2022/03/26 08:01:17;;;;;;;59.20;30.95;;;9.20;66.70;;;;;;4995893;28;20482;-72
2022/03/26 08:03:43;;;;;;;56.60;32.53;;;9.80;58.80;;;;;;5013472;28;20427;-72
2022/03/26 08:06:08;;;;;;;51.25;30.77;;;10.20;49.10;;;;;;4995664;28;20220;-72
2022/03/26 08:08:34;;;;;;;54.17;30.80;;;10.40;49.10;;;;;;4995882;28;20036;-73
2022/03/26 08:11:00;;;;;;;60.80;32.55;;;10.70;48.10;;;;;;5013291;28;20022;-73
2022/03/26 08:13:25;;;;;;;53.47;31.08;;;11.00;46.70;;;;;;5013341;28;20025;-72
2022/03/26 08:15:54;;;;;;;58.55;34.38;;;11.20;47.50;;;;;;5013344;28;20030;-75
2022/03/26 08:18:20;;;;;;;60.05;32.40;;;11.20;43.80;;;;;;4995834;28;20029;-75
2022/03/26 08:20:46;;;;;;;58.40;34.00;;;11.00;43.10;;;;;;4995769;28;20030;-73
2022/03/26 08:23:17;;;;;;;54.22;33.30;;;10.50;44.70;;;;;;5013364;28;20117;-75
2022/03/26 08:28:36;;;;;;;56.20;33.35;;;10.20;46.60;;;;;;5014029;28;20036;-76
2022/03/26 08:31:02;;;;;;;54.65;32.40;;;10.40;46.80;;;;;;4996180;28;20024;-77
2022/03/26 08:33:28;;;;;;;59.80;33.70;;;10.50;46.40;;;;;;4995471;28;20036;-77
2022/03/26 08:35:54;;;;;;;57.20;33.58;;;10.50;45.80;;;;;;4995351;28;20026;-78
2022/03/26 08:38:20;;;;;;;59.25;34.38;;;10.50;45.70;;;;;;4995831;28;20071;-76
2022/03/26 08:40:46;;;;;;;58.60;33.70;;;10.20;47.10;;;;;;4995172;28;20050;-77
2022/03/26 08:43:13;;;;;;;62.50;32.80;;;10.00;47.80;;;;;;4995346;28;20180;-76
2022/03/26 08:45:40;;;;;;;56.03;32.47;;;10.00;47.50;;;;;;4995110;28;20040;-79
2022/03/26 08:48:06;;;;;;;65.07;33.17;;;10.20;47.20;;;;;;4995324;28;20030;-75
2022/03/26 08:50:32;;;;;;;66.22;35.50;;;10.30;46.10;;;;;;4995197;28;20030;-77
2022/03/26 08:52:59;;;;;;;62.30;35.20;;;10.40;46.40;;;;;;4995028;28;20037;-80
2022/03/26 08:55:24;;;;;;;52.60;30.73;;;10.60;46.80;;;;;;4995670;28;20026;-78
2022/03/26 08:57:50;;;;;;;57.85;34.28;;;10.80;45.20;;;;;;4995424;28;20088;-76
2022/03/26 09:00:17;;;;;;;55.80;33.63;;;11.10;45.80;;;;;;4995043;28;20382;-80
2022/03/26 09:02:44;;;;;;;60.63;33.55;;;11.30;44.50;;;;;;4995537;28;20552;-80
2022/03/26 09:05:13;;;;;;;70.53;35.55;;;11.60;43.80;;;;;;4995161;28;20068;-76
2022/03/26 09:07:39;;;;;;;55.90;33.10;;;11.80;42.80;;;;;;4996224;28;20030;-75
2022/03/26 09:10:06;;;;;;;55.60;33.13;;;11.80;43.30;;;;;;4999187;28;20049;-75
2022/03/26 09:12:32;;;;;;;66.13;34.70;;;11.80;42.90;;;;;;4998801;28;20072;-77
2022/03/26 09:14:58;;;;;;;59.83;33.33;;;11.50;44.60;;;;;;4966416;28;20041;-77
2022/03/26 09:17:25;;;;;;;61.45;35.38;;;11.70;44.10;;;;;;4998130;28;20467;-75
2022/03/26 09:19:51;;;;;;;63.63;34.97;;;11.80;44.10;;;;;;4998762;28;20034;-79
2022/03/26 09:22:16;;;;;;;61.38;35.05;;;11.90;43.70;;;;;;4998716;28;20037;-76
2022/03/26 09:24:42;;;;;;;69.22;38.63;;;12.00;44.90;;;;;;4998637;28;20059;-76
2022/03/26 09:27:09;;;;;;;61.67;36.80;;;12.40;43.50;;;;;;4998754;28;20573;-76
2022/03/26 09:29:34;;;;;;;72.10;35.33;;;12.60;42.40;;;;;;4998237;28;20181;-74
2022/03/26 09:32:00;;;;;;;60.97;36.03;;;12.70;42.00;;;;;;4998028;28;20502;-76
2022/03/26 09:34:25;;;;;;;61.55;35.65;;;12.60;42.80;;;;;;4997658;28;20048;-76
2022/03/26 09:36:53;;;;;;;54.38;34.47;;;12.80;43.50;;;;;;4998679;28;20069;-76
2022/03/26 09:39:19;;;;;;;60.90;33.03;;;13.00;42.50;;;;;;4997837;28;20124;-75
2022/03/26 09:41:45;;;;;;;56.88;33.72;;;13.40;41.40;;;;;;4997743;28;20545;-76
2022/03/26 09:44:12;;;;;;;54.70;34.35;;;13.70;40.00;;;;;;4998323;28;20034;-78
2022/03/26 09:46:38;;;;;;;64.65;38.50;;;13.90;38.80;;;;;;4998293;28;20032;-77
2022/03/26 09:49:04;;;;;;;60.70;36.10;;;14.10;38.10;;;;;;4998396;28;20129;-79
2022/03/26 09:51:31;;;;;;;57.22;35.65;;;14.00;37.70;;;;;;4998293;28;20068;-75
2022/03/26 09:53:57;;;;;;;58.38;35.20;;;14.00;38.40;;;;;;4998325;28;20033;-75
2022/03/26 09:56:24;;;;;;;67.50;35.35;;;14.10;38.80;;;;;;4997855;28;20091;-77
2022/03/26 09:58:53;;;;;;;60.20;34.13;;;14.30;38.80;;;;;;4997966;28;20022;-78
2022/03/26 10:01:22;;;;;;;59.78;34.65;;;14.70;37.60;;;;;;4997905;28;20025;-77
2022/03/26 10:04:08;;;;;;;60.13;35.15;;;14.80;37.20;;;;;;5015281;28;20378;-78
2022/03/26 10:06:34;;;;;;;55.90;34.67;;;14.90;36.70;;;;;;4997395;28;20022;-79
2022/03/26 10:09:01;;;;;;;60.67;34.47;;;14.90;36.50;;;;;;4998506;28;20065;-78
2022/03/26 10:11:33;;;;;;;60.47;36.63;;;15.30;35.40;;;;;;4998037;28;20022;-74
2022/03/26 10:14:00;;;;;;;60.42;36.22;;;15.50;34.40;;;;;;4997616;28;20405;-76
2022/03/26 10:16:26;;;;;;;58.97;36.05;;;15.50;34.30;;;;;;5014914;28;20048;-79
2022/03/26 10:18:52;;;;;;;64.07;34.97;;;15.60;34.80;;;;;;5014805;28;20088;-78
2022/03/26 10:21:20;;;;;;;60.03;35.30;;;15.80;34.60;;;;;;4996981;28;20474;-77
2022/03/26 10:23:52;;;;;;;61.90;35.25;;;16.10;33.10;;;;;;4997379;28;20033;-77
2022/03/26 10:26:21;;;;;;;59.42;34.42;;;16.40;32.60;;;;;;4997060;28;20054;-80
2022/03/26 10:28:56;;;;;;;55.08;33.88;;;16.70;32.00;;;;;;4997308;28;20050;-75
2022/03/26 10:34:19;;;;;;;60.65;34.65;;;16.90;31.20;;;;;;5015534;28;20260;-75
2022/03/26 10:36:56;;;;;;;65.63;36.10;;;17.00;30.90;;;;;;4997085;28;20082;-78
2022/03/26 10:39:27;;;;;;;56.00;34.08;;;17.20;30.20;;;;;;4996678;28;20052;-75
2022/03/26 10:41:54;;;;;;;54.40;33.47;;;17.50;29.70;;;;;;5014329;28;20034;-74
2022/03/26 10:44:38;;;;;;;52.42;33.42;;;17.60;29.00;;;;;;4997475;28;20040;-77
2022/03/26 10:47:04;;;;;;;52.97;32.97;;;17.60;29.00;;;;;;4997058;28;20026;-78
2022/03/26 10:49:37;;;;;;;53.88;34.78;;;17.90;29.10;;;;;;4997181;28;20037;-76
2022/03/26 10:52:16;;;;;;;56.67;33.67;;;18.30;29.50;;;;;;4997059;28;20389;-77
2022/03/26 10:54:42;;;;;;;53.58;32.85;;;18.40;28.40;;;;;;5014663;28;20507;-77
2022/03/26 10:57:08;;;;;;;40.42;28.30;;;18.70;27.60;;;;;;4997019;28;20034;-75
2022/03/26 10:59:34;;;;;;;37.08;25.08;;;18.90;23.50;;;;;;4981169;28;20033;-75
2022/03/26 11:02:00;;;;;;;39.67;25.77;;;19.20;21.50;;;;;;4996644;28;20120;-77
2022/03/26 11:04:28;;;;;;;37.28;24.83;;;19.50;21.10;;;;;;4996835;28;20032;-77
2022/03/26 11:06:55;;;;;;;36.60;25.40;;;19.80;19.40;;;;;;4996877;28;20060;-77
2022/03/26 11:09:21;;;;;;;36.40;24.23;;;19.80;18.00;;;;;;4980634;28;20042;-76
2022/03/26 11:11:49;;;;;;;36.05;24.90;;;19.90;17.90;;;;;;4996762;28;20041;-78
2022/03/26 11:14:28;;;;;;;35.35;23.50;;;20.10;18.00;;;;;;4997140;28;20021;-77
2022/03/26 11:17:32;;;;;;;44.58;27.35;;;20.30;17.60;;;;;;4997289;28;20103;-77
2022/03/26 11:20:25;;;;;;;40.72;27.23;;;20.50;17.50;;;;;;5015534;28;20032;-78
2022/03/26 11:23:10;;;;;;;37.80;25.67;;;20.40;17.40;;;;;;4997113;28;20520;-78
2022/03/26 11:25:55;;;;;;;37.83;24.90;;;20.80;17.70;;;;;;4996426;28;20037;-78
2022/03/26 11:28:48;;;;;;;37.33;25.15;;;21.00;17.40;;;;;;4996853;28;20096;-78
2022/03/26 11:31:42;;;;;;;36.20;23.38;;;21.30;17.10;;;;;;4995590;28;20038;-79
2022/03/26 11:34:10;;;;;;;30.73;21.65;;;21.50;16.70;;;;;;4996487;28;20114;-78
2022/03/26 11:36:37;;;;;;;33.92;23.40;;;21.70;16.50;;;;;;4997082;28;20070;-78
2022/03/26 11:39:15;;;;;;;35.42;23.58;;;22.00;17.10;;;;;;4980455;28;20080;-75
2022/03/26 11:41:42;;;;;;;38.28;25.85;;;22.10;16.40;;;;;;4996182;28;20034;-74
2022/03/26 11:44:09;;;;;;;32.72;22.58;;;22.10;15.60;;;;;;4996131;28;20022;-74
2022/03/26 11:52:31;;;;;;;36.08;24.10;;;22.40;14.80;;;;;;5014062;28;20033;-74
2022/03/26 11:55:01;;;;;;;34.28;22.50;;;22.50;15.50;;;;;;4996451;28;20026;-74
2022/03/26 11:57:28;;;;;;;32.13;23.15;;;22.60;15.20;;;;;;4996195;28;20030;-74
2022/03/26 11:59:54;;;;;;;35.38;23.80;;;22.70;14.40;;;;;;4995781;28;20041;-76
2022/03/26 12:02:28;;;;;;;32.70;23.75;;;22.70;13.90;;;;;;4996028;28;20116;-73
2022/03/26 12:06:36;;;;;;;33.85;23.15;;;22.50;13.80;;;;;;4996238;28;20561;-74
2022/03/26 12:07:50;;;;;;;37.25;24.15;;;22.50;13.80;;;;;;5013398;28;20481;-74
2022/03/26 12:10:20;;;;;;;31.85;23.17;;;22.40;13.60;;;;;;4971411;28;20026;-73
2022/03/26 12:12:49;;;;;;;32.05;22.10;;;22.60;14.10;;;;;;4976292;28;20501;-75
2022/03/26 12:15:14;;;;;;;29.75;22.65;;;22.70;14.10;;;;;;4976117;28;20100;-76
2022/03/26 12:17:53;;;;;;;31.95;21.92;;;22.80;13.90;;;;;;4976459;28;20062;-74
2022/03/26 12:20:26;;;;;;;34.13;24.17;;;22.90;13.90;;;;;;4993652;28;20019;-75
2022/03/26 12:23:14;;;;;;;31.50;22.48;;;23.10;14.70;;;;;;4975781;28;20038;-74
2022/03/26 12:25:46;;;;;;;35.97;23.90;;;23.20;13.70;;;;;;4976785;28;20057;-75
2022/03/26 12:28:14;;;;;;;31.58;21.73;;;23.30;13.20;;;;;;4976027;28;20104;-76
2022/03/26 12:30:48;;;;;;;31.70;22.42;;;23.30;13.20;;;;;;4976380;28;20463;-76
2022/03/26 12:33:15;;;;;;;32.63;22.42;;;23.40;13.50;;;;;;4975993;28;20030;-74
2022/03/26 12:35:44;;;;;;;32.67;22.83;;;23.40;13.60;;;;;;4986068;28;20049;-74
2022/03/26 12:38:10;;;;;;;30.83;21.92;;;23.20;13.20;;;;;;4978295;28;20034;-74
2022/03/26 12:40:38;;;;;;;30.00;21.98;;;23.40;13.60;;;;;;4975504;28;20052;-75
2022/03/26 12:43:08;;;;;;;32.33;23.73;;;23.60;13.30;;;;;;4977109;28;20490;-74
2022/03/26 12:45:34;;;;;;;31.63;22.83;;;23.70;13.40;;;;;;4979849;28;20022;-74